Flushing, NY (11351)

12:49 PM EST on February 14, 2016 (GMT -0500)
Cedar Grove Cemetery, Flushing | | Change Station
CLOSE
Current Station
Personal Weather Station
Location: New York, NY
Elevation: 49 ft
Nearby Weather Stations

Elev 49 ft 40.74 °N, 73.83 °W | Updated 10 minutes ago

Partly Cloudy
Partly Cloudy
10.6 °F
Feels Like 2 °F
N
5.3
Wind Variable Wind from West

Today
High -- | Low -- °F
--% Chance of Precip.
Yesterday
High -- | Low -- °F
Precip. -- in
Pressure 30.53 in
Visibility 10.0 miles
Clouds Few 5500 ft
Windchill 2 °F
Dew Point -12 °F
Humidity 34%
Rainfall 0.06 in
Snow Depth Not available.
6:51 AM 5:28 PM
Waxing Crescent, 43% visible
METAR KLGA 141651Z 34006KT 10SM FEW055 M13/M26 A3053 RMK AO2 SLP336 T11331256 $
Pressure 30.53 in
Visibility 10.0 miles
Clouds Few 5500 ft
Windchill 2 °F
Dew Point -12 °F
Humidity 34%
Rainfall 0.06 in
Snow Depth Not available.
6:51 AM 5:28 PM
Waxing Crescent, 43% visible
METAR KLGA 141651Z 34006KT 10SM FEW055 M13/M26 A3053 RMK AO2 SLP336 T11331256 $

10-Day Weather Forecast

Almanac

Astronomy

Feb. 14, 2016 Rise Set
Actual Time
Civil Twilight
Nautical Twilight
Astronomical Twilight
Moon
Length of Visible Light
Length of Day
Tomorrow will be .
, % of the Moon is Illuminated

Today's Extremes

State Highs State Lows

Community

WunderPhotos

Upload Photos

1,892,860 photos uploaded!

WunderBlog® & News

Nearby

Air Quality

  Air Quality AQ Index Pollutant
Not available.

Snow Depth

Station Depth Elevation

Earthquake Activity

City Distance Mag. Time & Date
Minimum magnitude displayed is 2.5.

Coastal Water Temperatures

Place Temperature

Stations

Nearby Weather Stations

Station Location Temp. Windchill Dew Point Humidity Wind Precip. Elev Updated Type
                   

Watches & Warnings

There are currently no watches in effect.